sensor_id;sensor_type;location;lat;lon;timestamp;pressure;altitude;pressure_sealevel;temperature
19061;BMP280;9663;48.996;8.334;2024-02-23T00:00:48;98230.91;;;15.28
19061;BMP280;9663;48.996;8.334;2024-02-23T00:03:14;98241.13;;;15.28
19061;BMP280;9663;48.996;8.334;2024-02-23T00:05:40;98237.84;;;15.26
19061;BMP280;9663;48.996;8.334;2024-02-23T00:08:07;98238.72;;;15.25
19061;BMP280;9663;48.996;8.334;2024-02-23T00:10:34;98244.84;;;15.22
19061;BMP280;9663;48.996;8.334;2024-02-23T00:13:00;98249.13;;;15.22
19061;BMP280;9663;48.996;8.334;2024-02-23T00:15:26;98243.25;;;15.20
19061;BMP280;9663;48.996;8.334;2024-02-23T00:17:52;98266.22;;;15.20
19061;BMP280;9663;48.996;8.334;2024-02-23T00:20:17;98254.41;;;15.19
19061;BMP280;9663;48.996;8.334;2024-02-23T00:22:43;98252.84;;;15.15
19061;BMP280;9663;48.996;8.334;2024-02-23T00:25:09;98274.28;;;15.12
19061;BMP280;9663;48.996;8.334;2024-02-23T00:27:35;98287.13;;;15.11
19061;BMP280;9663;48.996;8.334;2024-02-23T00:30:00;98290.66;;;15.08
19061;BMP280;9663;48.996;8.334;2024-02-23T00:32:26;98294.28;;;15.04
19061;BMP280;9663;48.996;8.334;2024-02-23T00:34:52;98266.34;;;15.01
19061;BMP280;9663;48.996;8.334;2024-02-23T00:37:17;98286.03;;;14.99
19061;BMP280;9663;48.996;8.334;2024-02-23T00:39:43;98284.47;;;14.97
19061;BMP280;9663;48.996;8.334;2024-02-23T00:42:09;98273.44;;;14.96
19061;BMP280;9663;48.996;8.334;2024-02-23T00:44:34;98273.44;;;14.96
19061;BMP280;9663;48.996;8.334;2024-02-23T00:47:00;98276.06;;;14.95
19061;BMP280;9663;48.996;8.334;2024-02-23T00:49:30;98297.47;;;14.93
19061;BMP280;9663;48.996;8.334;2024-02-23T00:51:56;98305.13;;;14.93
19061;BMP280;9663;48.996;8.334;2024-02-23T00:54:22;98301.06;;;14.89
19061;BMP280;9663;48.996;8.334;2024-02-23T00:56:48;98316.44;;;14.87
19061;BMP280;9663;48.996;8.334;2024-02-23T00:59:13;98321.56;;;14.87
19061;BMP280;9663;48.996;8.334;2024-02-23T01:01:39;98314.09;;;14.84
19061;BMP280;9663;48.996;8.334;2024-02-23T01:04:05;98311.47;;;14.86
19061;BMP280;9663;48.996;8.334;2024-02-23T01:06:30;98317.44;;;14.85
19061;BMP280;9663;48.996;8.334;2024-02-23T01:08:56;98316.72;;;14.83
19061;BMP280;9663;48.996;8.334;2024-02-23T01:11:21;98316.03;;;14.79
19061;BMP280;9663;48.996;8.334;2024-02-23T01:13:47;98291.50;;;14.77
19061;BMP280;9663;48.996;8.334;2024-02-23T01:16:13;98325.72;;;14.73
19061;BMP280;9663;48.996;8.334;2024-02-23T01:18:38;98319.03;;;14.70
19061;BMP280;9663;48.996;8.334;2024-02-23T01:21:04;98330.25;;;14.68
19061;BMP280;9663;48.996;8.334;2024-02-23T01:23:29;98320.09;;;14.66
19061;BMP280;9663;48.996;8.334;2024-02-23T01:25:55;98343.22;;;14.63
19061;BMP280;9663;48.996;8.334;2024-02-23T01:28:21;98329.72;;;14.61
19061;BMP280;9663;48.996;8.334;2024-02-23T01:30:47;98345.91;;;14.60
19061;BMP280;9663;48.996;8.334;2024-02-23T01:33:12;98338.25;;;14.60
19061;BMP280;9663;48.996;8.334;2024-02-23T01:35:38;98339.19;;;14.59
19061;BMP280;9663;48.996;8.334;2024-02-23T01:38:04;98358.75;;;14.59
19061;BMP280;9663;48.996;8.334;2024-02-23T01:40:30;98340.97;;;14.57
19061;BMP280;9663;48.996;8.334;2024-02-23T01:43:04;98350.34;;;14.57
19061;BMP280;9663;48.996;8.334;2024-02-23T01:45:30;98352.09;;;14.56
19061;BMP280;9663;48.996;8.334;2024-02-23T01:47:57;98367.31;;;14.58
19061;BMP280;9663;48.996;8.334;2024-02-23T01:50:25;98365.56;;;14.58
19061;BMP280;9663;48.996;8.334;2024-02-23T01:52:51;98379.16;;;14.59
19061;BMP280;9663;48.996;8.334;2024-02-23T01:55:20;98379.16;;;14.59
19061;BMP280;9663;48.996;8.334;2024-02-23T01:57:47;98380.81;;;14.60
19061;BMP280;9663;48.996;8.334;2024-02-23T02:00:17;98385.91;;;14.60
19061;BMP280;9663;48.996;8.334;2024-02-23T02:02:44;98365.66;;;14.57
19061;BMP280;9663;48.996;8.334;2024-02-23T02:05:10;98365.50;;;14.60
19061;BMP280;9663;48.996;8.334;2024-02-23T02:07:37;98385.00;;;14.61
19061;BMP280;9663;48.996;8.334;2024-02-23T02:10:06;98374.78;;;14.61
19061;BMP280;9663;48.996;8.334;2024-02-23T02:12:33;98388.38;;;14.61
19061;BMP280;9663;48.996;8.334;2024-02-23T02:14:59;98385.75;;;14.63
19061;BMP280;9663;48.996;8.334;2024-02-23T02:17:27;98396.78;;;14.63
19061;BMP280;9663;48.996;8.334;2024-02-23T02:19:53;98390.72;;;14.66
19061;BMP280;9663;48.996;8.334;2024-02-23T02:22:19;98393.34;;;14.64
19061;BMP280;9663;48.996;8.334;2024-02-23T02:24:45;98392.50;;;14.64
19061;BMP280;9663;48.996;8.334;2024-02-23T02:27:12;98388.16;;;14.66
19061;BMP280;9663;48.996;8.334;2024-02-23T02:29:38;98396.72;;;14.65
19061;BMP280;9663;48.996;8.334;2024-02-23T02:32:04;98394.25;;;14.63
19061;BMP280;9663;48.996;8.334;2024-02-23T02:34:30;98390.88;;;14.63
19061;BMP280;9663;48.996;8.334;2024-02-23T02:36:55;98400.16;;;14.64
19061;BMP280;9663;48.996;8.334;2024-02-23T02:39:21;98398.53;;;14.63
19061;BMP280;9663;48.996;8.334;2024-02-23T02:41:50;98385.91;;;14.60
19061;BMP280;9663;48.996;8.334;2024-02-23T02:44:16;98398.72;;;14.58
19061;BMP280;9663;48.996;8.334;2024-02-23T02:46:42;98393.69;;;14.57
19061;BMP280;9663;48.996;8.334;2024-02-23T02:49:08;98396.25;;;14.57
19061;BMP280;9663;48.996;8.334;2024-02-23T02:51:34;98398.81;;;14.57
19061;BMP280;9663;48.996;8.334;2024-02-23T02:54:00;98404.78;;;14.56
19061;BMP280;9663;48.996;8.334;2024-02-23T02:56:26;98392.97;;;14.55
19061;BMP280;9663;48.996;8.334;2024-02-23T02:58:51;98390.47;;;14.53
19061;BMP280;9663;48.996;8.334;2024-02-23T03:01:17;98405.84;;;14.52
19061;BMP280;9663;48.996;8.334;2024-02-23T03:03:43;98411.84;;;14.51
19061;BMP280;9663;48.996;8.334;2024-02-23T03:06:08;98410.28;;;14.49
19061;BMP280;9663;48.996;8.334;2024-02-23T03:08:34;98405.25;;;14.47
19061;BMP280;9663;48.996;8.334;2024-02-23T03:11:00;98403.69;;;14.45
19061;BMP280;9663;48.996;8.334;2024-02-23T03:13:26;98397.13;;;14.39
19061;BMP280;9663;48.996;8.334;2024-02-23T03:15:51;98401.63;;;14.34
19061;BMP280;9663;48.996;8.334;2024-02-23T03:18:17;98383.25;;;14.28
19061;BMP280;9663;48.996;8.334;2024-02-23T03:20:43;98397.88;;;14.24
19061;BMP280;9663;48.996;8.334;2024-02-23T03:23:11;98390.44;;;14.20
19061;BMP280;9663;48.996;8.334;2024-02-23T03:25:37;98395.78;;;14.15
19061;BMP280;9663;48.996;8.334;2024-02-23T03:28:03;98403.56;;;14.12
19061;BMP280;9663;48.996;8.334;2024-02-23T03:30:28;98401.00;;;14.12
19061;BMP280;9663;48.996;8.334;2024-02-23T03:32:54;98398.47;;;14.12
19061;BMP280;9663;48.996;8.334;2024-02-23T03:35:20;98398.31;;;14.15
19061;BMP280;9663;48.996;8.334;2024-02-23T03:37:45;98410.81;;;14.20
19061;BMP280;9663;48.996;8.334;2024-02-23T03:40:11;98410.69;;;14.23
19061;BMP280;9663;48.996;8.334;2024-02-23T03:42:38;98408.81;;;14.26
19061;BMP280;9663;48.996;8.334;2024-02-23T03:45:05;98393.38;;;14.29
19061;BMP280;9663;48.996;8.334;2024-02-23T03:47:31;98412.75;;;14.33
19061;BMP280;9663;48.996;8.334;2024-02-23T03:49:56;98408.41;;;14.35
19061;BMP280;9663;48.996;8.334;2024-02-23T03:52:22;98416.78;;;14.37
19061;BMP280;9663;48.996;8.334;2024-02-23T03:54:48;98405.63;;;14.40
19061;BMP280;9663;48.996;8.334;2024-02-23T03:57:14;98418.28;;;14.41
19061;BMP280;9663;48.996;8.334;2024-02-23T03:59:51;98405.47;;;14.43
19061;BMP280;9663;48.996;8.334;2024-02-23T04:02:16;98422.34;;;14.45
19061;BMP280;9663;48.996;8.334;2024-02-23T04:04:42;98420.69;;;14.44
19061;BMP280;9663;48.996;8.334;2024-02-23T04:07:08;98432.56;;;14.45
19061;BMP280;9663;48.996;8.334;2024-02-23T04:09:34;98435.03;;;14.47
19061;BMP280;9663;48.996;8.334;2024-02-23T04:11:59;98442.63;;;14.48
19061;BMP280;9663;48.996;8.334;2024-02-23T04:14:25;98453.72;;;14.47
19061;BMP280;9663;48.996;8.334;2024-02-23T04:16:51;98440.13;;;14.47
19061;BMP280;9663;48.996;8.334;2024-02-23T04:19:17;98437.59;;;14.47
19061;BMP280;9663;48.996;8.334;2024-02-23T04:21:42;98444.25;;;14.49
19061;BMP280;9663;48.996;8.334;2024-02-23T04:24:08;98442.56;;;14.50
19061;BMP280;9663;48.996;8.334;2024-02-23T04:26:34;98444.25;;;14.49
19061;BMP280;9663;48.996;8.334;2024-02-23T04:28:59;98446.00;;;14.49
19061;BMP280;9663;48.996;8.334;2024-02-23T04:31:25;98446.81;;;14.49
19061;BMP280;9663;48.996;8.334;2024-02-23T04:33:51;98433.25;;;14.49
19061;BMP280;9663;48.996;8.334;2024-02-23T04:36:20;98432.56;;;14.45
19061;BMP280;9663;48.996;8.334;2024-02-23T04:38:48;98421.75;;;14.40
19061;BMP280;9663;48.996;8.334;2024-02-23T04:41:14;98427.88;;;14.36
19061;BMP280;9663;48.996;8.334;2024-02-23T04:43:40;98420.41;;;14.33
19061;BMP280;9663;48.996;8.334;2024-02-23T04:46:05;98421.44;;;14.29
19061;BMP280;9663;48.996;8.334;2024-02-23T04:48:31;98403.78;;;14.25
19061;BMP280;9663;48.996;8.334;2024-02-23T04:50:57;98431.94;;;14.23
19061;BMP280;9663;48.996;8.334;2024-02-23T04:53:23;98415.84;;;14.21
19061;BMP280;9663;48.996;8.334;2024-02-23T04:55:49;98411.66;;;14.20
19061;BMP280;9663;48.996;8.334;2024-02-23T04:58:15;98415.19;;;14.18
19061;BMP280;9663;48.996;8.334;2024-02-23T05:00:40;98411.66;;;14.20
19061;BMP280;9663;48.996;8.334;2024-02-23T05:03:06;98415.03;;;14.21
19061;BMP280;9663;48.996;8.334;2024-02-23T05:05:32;98408.22;;;14.21
19061;BMP280;9663;48.996;8.334;2024-02-23T05:07:58;98420.06;;;14.22
19061;BMP280;9663;48.996;8.334;2024-02-23T05:10:24;98419.25;;;14.22
19061;BMP280;9663;48.996;8.334;2024-02-23T05:12:50;98417.59;;;14.21
19061;BMP280;9663;48.996;8.334;2024-02-23T05:15:16;98411.59;;;14.22
19061;BMP280;9663;48.996;8.334;2024-02-23T05:17:42;98402.28;;;14.21
19061;BMP280;9663;48.996;8.334;2024-02-23T05:20:08;98411.66;;;14.20
19061;BMP280;9663;48.996;8.334;2024-02-23T05:22:37;98405.81;;;14.18
19061;BMP280;9663;48.996;8.334;2024-02-23T05:25:04;98409.34;;;14.16
19061;BMP280;9663;48.996;8.334;2024-02-23T05:27:31;98416.16;;;14.15
19061;BMP280;9663;48.996;8.334;2024-02-23T05:29:56;98416.28;;;14.12
19061;BMP280;9663;48.996;8.334;2024-02-23T05:32:22;98419.72;;;14.11
19061;BMP280;9663;48.996;8.334;2024-02-23T05:34:48;98411.28;;;14.11
19061;BMP280;9663;48.996;8.334;2024-02-23T05:37:17;98407.22;;;14.07
19061;BMP280;9663;48.996;8.334;2024-02-23T05:39:43;98429.50;;;14.02
19061;BMP280;9663;48.996;8.334;2024-02-23T05:42:09;98439.91;;;13.98
19061;BMP280;9663;48.996;8.334;2024-02-23T05:44:36;98433.44;;;13.91
19061;BMP280;9663;48.996;8.334;2024-02-23T05:47:01;98447.34;;;13.84
19061;BMP280;9663;48.996;8.334;2024-02-23T05:49:27;98440.81;;;13.78
19061;BMP280;9663;48.996;8.334;2024-02-23T05:51:53;98438.63;;;13.71
19061;BMP280;9663;48.996;8.334;2024-02-23T05:54:18;98435.56;;;13.63
19061;BMP280;9663;48.996;8.334;2024-02-23T05:56:45;98433.22;;;13.59
19061;BMP280;9663;48.996;8.334;2024-02-23T05:59:11;98425.84;;;13.53
19061;BMP280;9663;48.996;8.334;2024-02-23T06:01:37;98435.47;;;13.46
19061;BMP280;9663;48.996;8.334;2024-02-23T06:04:03;98434.09;;;13.39
19061;BMP280;9663;48.996;8.334;2024-02-23T06:06:29;98441.84;;;13.36
19061;BMP280;9663;48.996;8.334;2024-02-23T06:08:54;98451.50;;;13.30
19061;BMP280;9663;48.996;8.334;2024-02-23T06:11:20;98444.00;;;13.27
19061;BMP280;9663;48.996;8.334;2024-02-23T06:13:47;98448.47;;;13.22
19061;BMP280;9663;48.996;8.334;2024-02-23T06:16:12;98447.75;;;13.19
19061;BMP280;9663;48.996;8.334;2024-02-23T06:18:39;98446.09;;;13.18
19061;BMP280;9663;48.996;8.334;2024-02-23T06:21:14;98449.56;;;13.15
19061;BMP280;9663;48.996;8.334;2024-02-23T06:23:41;98443.69;;;13.15
19061;BMP280;9663;48.996;8.334;2024-02-23T06:26:07;98453.03;;;13.14
19061;BMP280;9663;48.996;8.334;2024-02-23T06:28:33;98440.25;;;13.16
19061;BMP280;9663;48.996;8.334;2024-02-23T06:30:58;98448.69;;;13.16
19061;BMP280;9663;48.996;8.334;2024-02-23T06:33:24;98453.72;;;13.18
19061;BMP280;9663;48.996;8.334;2024-02-23T06:35:50;98452.84;;;13.19
19061;BMP280;9663;48.996;8.334;2024-02-23T06:38:18;98455.25;;;13.22
19061;BMP280;9663;48.996;8.334;2024-02-23T06:40:43;98458.50;;;13.25
19061;BMP280;9663;48.996;8.334;2024-02-23T06:43:09;98461.75;;;13.28
19061;BMP280;9663;48.996;8.334;2024-02-23T06:45:35;98463.38;;;13.29
19061;BMP280;9663;48.996;8.334;2024-02-23T06:48:00;98454.88;;;13.30
19061;BMP280;9663;48.996;8.334;2024-02-23T06:50:26;98448.16;;;13.28
19061;BMP280;9663;48.996;8.334;2024-02-23T06:52:51;98452.31;;;13.30
19061;BMP280;9663;48.996;8.334;2024-02-23T06:55:17;98449.03;;;13.28
19061;BMP280;9663;48.996;8.334;2024-02-23T06:57:43;98453.25;;;13.28
19061;BMP280;9663;48.996;8.334;2024-02-23T07:00:09;98453.19;;;13.29
19061;BMP280;9663;48.996;8.334;2024-02-23T07:02:35;98458.34;;;13.28
19061;BMP280;9663;48.996;8.334;2024-02-23T07:05:03;98448.09;;;13.29
19061;BMP280;9663;48.996;8.334;2024-02-23T07:07:33;98459.13;;;13.30
19061;BMP280;9663;48.996;8.334;2024-02-23T07:10:03;98451.50;;;13.30
19061;BMP280;9663;48.996;8.334;2024-02-23T07:12:28;98464.34;;;13.27
19061;BMP280;9663;48.996;8.334;2024-02-23T07:14:57;98456.78;;;13.25
19061;BMP280;9663;48.996;8.334;2024-02-23T07:17:23;98460.22;;;13.24
19061;BMP280;9663;48.996;8.334;2024-02-23T07:19:49;98458.41;;;13.26
19061;BMP280;9663;48.996;8.334;2024-02-23T07:22:17;98461.88;;;13.25
19061;BMP280;9663;48.996;8.334;2024-02-23T07:24:46;98466.91;;;13.27
19061;BMP280;9663;48.996;8.334;2024-02-23T07:27:12;98460.09;;;13.27
19061;BMP280;9663;48.996;8.334;2024-02-23T07:29:38;98454.13;;;13.28
19061;BMP280;9663;48.996;8.334;2024-02-23T07:32:04;98460.03;;;13.29
19061;BMP280;9663;48.996;8.334;2024-02-23T07:34:31;98467.47;;;13.33
19061;BMP280;9663;48.996;8.334;2024-02-23T07:36:57;98474.13;;;13.36
19061;BMP280;9663;48.996;8.334;2024-02-23T07:39:22;98466.38;;;13.39
19061;BMP280;9663;48.996;8.334;2024-02-23T07:41:48;98472.91;;;13.44
19061;BMP280;9663;48.996;8.334;2024-02-23T07:44:14;98480.28;;;13.50
19061;BMP280;9663;48.996;8.334;2024-02-23T07:46:39;98481.56;;;13.60
19061;BMP280;9663;48.996;8.334;2024-02-23T07:49:05;98487.00;;;13.71
19061;BMP280;9663;48.996;8.334;2024-02-23T07:51:35;98481.50;;;13.80
19061;BMP280;9663;48.996;8.334;2024-02-23T07:54:01;98483.50;;;13.92
19061;BMP280;9663;48.996;8.334;2024-02-23T07:56:27;98479.69;;;14.00
19061;BMP280;9663;48.996;8.334;2024-02-23T07:58:54;98475.88;;;14.10
19061;BMP280;9663;48.996;8.334;2024-02-23T08:01:19;98474.66;;;14.18
19061;BMP280;9663;48.996;8.334;2024-02-23T08:03:45;98474.81;;;14.32
19061;BMP280;9663;48.996;8.334;2024-02-23T08:06:11;98471.78;;;14.43
19061;BMP280;9663;48.996;8.334;2024-02-23T08:08:38;98474.72;;;14.52
19061;BMP280;9663;48.996;8.334;2024-02-23T08:11:04;98471.56;;;14.64
19061;BMP280;9663;48.996;8.334;2024-02-23T08:13:31;98477.91;;;14.74
19061;BMP280;9663;48.996;8.334;2024-02-23T08:15:58;98475.59;;;14.86
19061;BMP280;9663;48.996;8.334;2024-02-23T08:18:24;98480.75;;;15.01
19061;BMP280;9663;48.996;8.334;2024-02-23T08:20:49;98479.97;;;15.18
19061;BMP280;9663;48.996;8.334;2024-02-23T08:23:15;98481.66;;;15.34
19061;BMP280;9663;48.996;8.334;2024-02-23T08:25:41;98474.06;;;15.49
19061;BMP280;9663;48.996;8.334;2024-02-23T08:28:07;98474.09;;;15.65
19061;BMP280;9663;48.996;8.334;2024-02-23T08:30:33;98461.75;;;15.73
19061;BMP280;9663;48.996;8.334;2024-02-23T08:32:59;98462.19;;;15.81
19061;BMP280;9663;48.996;8.334;2024-02-23T08:35:26;98458.72;;;15.81
19061;BMP280;9663;48.996;8.334;2024-02-23T08:37:51;98467.88;;;15.85
19061;BMP280;9663;48.996;8.334;2024-02-23T08:40:17;98457.47;;;15.88
19061;BMP280;9663;48.996;8.334;2024-02-23T08:42:43;98453.88;;;15.92
19061;BMP280;9663;48.996;8.334;2024-02-23T08:45:09;98451.63;;;16.02
19061;BMP280;9663;48.996;8.334;2024-02-23T08:47:38;98445.03;;;16.13
19061;BMP280;9663;48.996;8.334;2024-02-23T08:50:04;98450.09;;;16.30
19061;BMP280;9663;48.996;8.334;2024-02-23T08:52:30;98444.97;;;16.45
19061;BMP280;9663;48.996;8.334;2024-02-23T08:54:56;98444.19;;;16.59
19061;BMP280;9663;48.996;8.334;2024-02-23T08:57:22;98440.09;;;17.28
19061;BMP280;9663;48.996;8.334;2024-02-23T08:59:51;98455.41;;;17.14
19061;BMP280;9663;48.996;8.334;2024-02-23T09:02:17;98440.44;;;17.22
19061;BMP280;9663;48.996;8.334;2024-02-23T09:04:42;98451.16;;;17.29
19061;BMP280;9663;48.996;8.334;2024-02-23T09:07:10;98437.16;;;17.34
19061;BMP280;9663;48.996;8.334;2024-02-23T09:09:36;98435.44;;;17.35
19061;BMP280;9663;48.996;8.334;2024-02-23T09:12:02;98443.13;;;17.35
19061;BMP280;9663;48.996;8.334;2024-02-23T09:14:27;98444.66;;;17.37
19061;BMP280;9663;48.996;8.334;2024-02-23T09:16:53;98436.34;;;17.34
19061;BMP280;9663;48.996;8.334;2024-02-23T09:19:19;98449.06;;;17.35
19061;BMP280;9663;48.996;8.334;2024-02-23T09:21:46;98444.66;;;17.37
19061;BMP280;9663;48.996;8.334;2024-02-23T09:24:12;98448.72;;;17.41
19061;BMP280;9663;48.996;8.334;2024-02-23T09:26:38;98443.28;;;17.46
19061;BMP280;9663;48.996;8.334;2024-02-23T09:29:05;98439.66;;;17.50
19061;BMP280;9663;48.996;8.334;2024-02-23T09:31:31;98440.19;;;17.54
19061;BMP280;9663;48.996;8.334;2024-02-23T09:33:57;98432.34;;;17.57
19061;BMP280;9663;48.996;8.334;2024-02-23T09:36:23;98441.56;;;17.60
19061;BMP280;9663;48.996;8.334;2024-02-23T09:38:50;98438.44;;;17.55
19061;BMP280;9663;48.996;8.334;2024-02-23T09:41:22;98433.69;;;17.49
19061;BMP280;9663;48.996;8.334;2024-02-23T09:43:49;98429.75;;;17.44
19061;BMP280;9663;48.996;8.334;2024-02-23T09:46:17;98432.78;;;17.36
19061;BMP280;9663;48.996;8.334;2024-02-23T09:48:44;98428.09;;;17.70
19061;BMP280;9663;48.996;8.334;2024-02-23T09:51:11;98428.41;;;17.38
19061;BMP280;9663;48.996;8.334;2024-02-23T09:53:39;98410.41;;;17.80
19061;BMP280;9663;48.996;8.334;2024-02-23T09:56:05;98425.72;;;17.53
19061;BMP280;9663;48.996;8.334;2024-02-23T09:58:32;98415.06;;;18.15
19061;BMP280;9663;48.996;8.334;2024-02-23T10:01:02;98410.16;;;17.84
19061;BMP280;9663;48.996;8.334;2024-02-23T10:03:30;98414.16;;;17.88
19061;BMP280;9663;48.996;8.334;2024-02-23T10:05:59;98416.81;;;17.87
19061;BMP280;9663;48.996;8.334;2024-02-23T10:08:28;98414.34;;;17.85
19061;BMP280;9663;48.996;8.334;2024-02-23T10:10:55;98410.97;;;17.85
19061;BMP280;9663;48.996;8.334;2024-02-23T10:13:24;98413.78;;;17.80
19061;BMP280;9663;48.996;8.334;2024-02-23T10:15:51;98404.84;;;17.73
19061;BMP280;9663;48.996;8.334;2024-02-23T10:18:16;98407.78;;;17.67
19061;BMP280;9663;48.996;8.334;2024-02-23T10:20:42;98420.41;;;17.70
19061;BMP280;9663;48.996;8.334;2024-02-23T10:23:09;98414.38;;;17.71
19061;BMP280;9663;48.996;8.334;2024-02-23T10:25:38;98407.13;;;17.78
19061;BMP280;9663;48.996;8.334;2024-02-23T10:28:07;98423.25;;;17.80
19061;BMP280;9663;48.996;8.334;2024-02-23T10:30:33;98417.56;;;18.29
19061;BMP280;9663;48.996;8.334;2024-02-23T10:32:59;98410.09;;;17.98
19061;BMP280;9663;48.996;8.334;2024-02-23T10:35:26;98426.44;;;17.97
19061;BMP280;9663;48.996;8.334;2024-02-23T10:37:56;98417.16;;;17.95
19061;BMP280;9663;48.996;8.334;2024-02-23T10:40:22;98421.31;;;17.97
19061;BMP280;9663;48.996;8.334;2024-02-23T10:42:57;98409.91;;;18.01
19061;BMP280;9663;48.996;8.334;2024-02-23T10:45:28;98418.72;;;18.11
19061;BMP280;9663;48.996;8.334;2024-02-23T10:47:56;98413.34;;;18.28
19061;BMP280;9663;48.996;8.334;2024-02-23T10:50:25;98423.84;;;18.37
19061;BMP280;9663;48.996;8.334;2024-02-23T10:52:53;98422.34;;;18.47
19061;BMP280;9663;48.996;8.334;2024-02-23T10:55:22;98424.13;;;18.59
19061;BMP280;9663;48.996;8.334;2024-02-23T10:57:50;98424.47;;;18.67
19061;BMP280;9663;48.996;8.334;2024-02-23T11:00:16;98423.84;;;19.02
19061;BMP280;9663;48.996;8.334;2024-02-23T11:02:50;98430.44;;;18.80
19061;BMP280;9663;48.996;8.334;2024-02-23T11:05:18;98433.84;;;18.80
19061;BMP280;9663;48.996;8.334;2024-02-23T11:07:46;98425.22;;;18.81
19061;BMP280;9663;48.996;8.334;2024-02-23T11:10:17;98432.31;;;18.78
19061;BMP280;9663;48.996;8.334;2024-02-23T11:12:43;98421.19;;;19.16
19061;BMP280;9663;48.996;8.334;2024-02-23T11:15:09;98426.25;;;18.91
19061;BMP280;9663;48.996;8.334;2024-02-23T11:17:50;98426.56;;;18.86
19061;BMP280;9663;48.996;8.334;2024-02-23T11:20:16;98417.59;;;18.80
19061;BMP280;9663;48.996;8.334;2024-02-23T11:22:42;98416.56;;;18.70
19061;BMP280;9663;48.996;8.334;2024-02-23T11:25:08;98422.31;;;18.61
19061;BMP280;9663;48.996;8.334;2024-02-23T11:27:37;98424.25;;;18.57
19061;BMP280;9663;48.996;8.334;2024-02-23T11:30:05;98415.22;;;18.64
19061;BMP280;9663;48.996;8.334;2024-02-23T11:32:42;98416.66;;;18.68
19061;BMP280;9663;48.996;8.334;2024-02-23T11:35:11;98409.09;;;18.79
19061;BMP280;9663;48.996;8.334;2024-02-23T11:37:54;98406.81;;;19.38
19061;BMP280;9663;48.996;8.334;2024-02-23T11:40:30;98394.13;;;20.31
19061;BMP280;9663;48.996;8.334;2024-02-23T11:42:57;98410.06;;;20.59
19061;BMP280;9663;48.996;8.334;2024-02-23T11:45:28;98400.41;;;20.50
19061;BMP280;9663;48.996;8.334;2024-02-23T11:47:54;98402.59;;;20.33
19061;BMP280;9663;48.996;8.334;2024-02-23T11:50:20;98397.69;;;20.17
19061;BMP280;9663;48.996;8.334;2024-02-23T11:52:47;98397.69;;;20.17
19061;BMP280;9663;48.996;8.334;2024-02-23T11:55:18;98389.41;;;20.48
19061;BMP280;9663;48.996;8.334;2024-02-23T11:57:45;98380.81;;;20.94
19061;BMP280;9663;48.996;8.334;2024-02-23T12:00:11;98383.41;;;21.05
19061;BMP280;9663;48.996;8.334;2024-02-23T12:02:37;98383.16;;;20.97
19061;BMP280;9663;48.996;8.334;2024-02-23T12:05:02;98388.75;;;20.80
19061;BMP280;9663;48.996;8.334;2024-02-23T12:07:30;98392.16;;;20.57
19061;BMP280;9663;48.996;8.334;2024-02-23T12:09:56;98384.00;;;20.40
19061;BMP280;9663;48.996;8.334;2024-02-23T12:12:24;98383.00;;;20.30
19061;BMP280;9663;48.996;8.334;2024-02-23T12:14:50;98386.75;;;20.26
19061;BMP280;9663;48.996;8.334;2024-02-23T12:17:16;98376.53;;;20.48
19061;BMP280;9663;48.996;8.334;2024-02-23T12:19:41;98374.66;;;21.18
19061;BMP280;9663;48.996;8.334;2024-02-23T12:22:10;98368.53;;;22.69
19061;BMP280;9663;48.996;8.334;2024-02-23T12:24:36;98358.81;;;24.39
19061;BMP280;9663;48.996;8.334;2024-02-23T12:27:02;98346.66;;;25.68
19061;BMP280;9663;48.996;8.334;2024-02-23T12:29:28;98356.88;;;26.58
19061;BMP280;9663;48.996;8.334;2024-02-23T12:32:06;98329.25;;;26.99
19061;BMP280;9663;48.996;8.334;2024-02-23T12:34:33;98341.44;;;26.99
19061;BMP280;9663;48.996;8.334;2024-02-23T12:37:02;98351.25;;;26.27
19061;BMP280;9663;48.996;8.334;2024-02-23T12:39:29;98345.53;;;25.44
19061;BMP280;9663;48.996;8.334;2024-02-23T12:41:55;98361.38;;;24.58
19061;BMP280;9663;48.996;8.334;2024-02-23T12:44:22;98356.34;;;23.70
19061;BMP280;9663;48.996;8.334;2024-02-23T12:46:48;98352.28;;;22.98
19061;BMP280;9663;48.996;8.334;2024-02-23T12:49:14;98368.56;;;22.37
19061;BMP280;9663;48.996;8.334;2024-02-23T12:51:41;98368.53;;;21.85
19061;BMP280;9663;48.996;8.334;2024-02-23T12:54:07;98368.09;;;21.36
19061;BMP280;9663;48.996;8.334;2024-02-23T12:56:33;98385.03;;;20.95
19061;BMP280;9663;48.996;8.334;2024-02-23T12:58:59;98369.09;;;20.56
19061;BMP280;9663;48.996;8.334;2024-02-23T13:01:24;98382.41;;;20.27
19061;BMP280;9663;48.996;8.334;2024-02-23T13:03:50;98382.31;;;20.05
19061;BMP280;9663;48.996;8.334;2024-02-23T13:06:16;98379.28;;;19.88
19061;BMP280;9663;48.996;8.334;2024-02-23T13:08:41;98386.56;;;19.81
19061;BMP280;9663;48.996;8.334;2024-02-23T13:11:08;98372.28;;;19.77
19061;BMP280;9663;48.996;8.334;2024-02-23T13:13:35;98370.41;;;19.79
19061;BMP280;9663;48.996;8.334;2024-02-23T13:16:01;98374.41;;;19.83
19061;BMP280;9663;48.996;8.334;2024-02-23T13:18:27;98366.19;;;19.78
19061;BMP280;9663;48.996;8.334;2024-02-23T13:20:53;98371.69;;;19.74
19061;BMP280;9663;48.996;8.334;2024-02-23T13:23:19;98367.34;;;19.74
19061;BMP280;9663;48.996;8.334;2024-02-23T13:25:45;98371.75;;;19.85
19061;BMP280;9663;48.996;8.334;2024-02-23T13:28:11;98369.56;;;20.04
19061;BMP280;9663;48.996;8.334;2024-02-23T13:30:38;98364.94;;;20.19
19061;BMP280;9663;48.996;8.334;2024-02-23T13:33:04;98367.25;;;20.35
19061;BMP280;9663;48.996;8.334;2024-02-23T13:35:31;98362.25;;;20.44
19061;BMP280;9663;48.996;8.334;2024-02-23T13:37:57;98357.84;;;20.57
19061;BMP280;9663;48.996;8.334;2024-02-23T13:40:29;98360.97;;;20.73
19061;BMP280;9663;48.996;8.334;2024-02-23T13:42:56;98353.03;;;20.76
19061;BMP280;9663;48.996;8.334;2024-02-23T13:45:22;98353.63;;;20.79
19061;BMP280;9663;48.996;8.334;2024-02-23T13:48:02;98343.41;;;20.78
19061;BMP280;9663;48.996;8.334;2024-02-23T13:50:29;98346.59;;;20.81
19061;BMP280;9663;48.996;8.334;2024-02-23T13:52:55;98349.50;;;20.77
19061;BMP280;9663;48.996;8.334;2024-02-23T13:55:21;98338.38;;;20.65
19061;BMP280;9663;48.996;8.334;2024-02-23T13:57:48;98336.41;;;20.91
19061;BMP280;9663;48.996;8.334;2024-02-23T14:00:16;98337.66;;;20.40
19061;BMP280;9663;48.996;8.334;2024-02-23T14:02:42;98336.53;;;20.21
19061;BMP280;9663;48.996;8.334;2024-02-23T14:05:08;98318.47;;;20.10
19061;BMP280;9663;48.996;8.334;2024-02-23T14:07:34;98329.78;;;20.08
19061;BMP280;9663;48.996;8.334;2024-02-23T14:10:00;98315.31;;;20.07
19061;BMP280;9663;48.996;8.334;2024-02-23T14:12:26;98312.84;;;20.05
19061;BMP280;9663;48.996;8.334;2024-02-23T14:14:53;98308.50;;;20.06
19061;BMP280;9663;48.996;8.334;2024-02-23T14:17:18;98312.63;;;20.08